sensor_id;sensor_type;location;lat;lon;timestamp;P1;durP1;ratioP1;P2;durP2;ratioP2
62071;SDS011;48031;48.542;13.232;2022-12-07T00:03:27;6.53;;;3.85;;
62071;SDS011;48031;48.542;13.232;2022-12-07T00:07:29;7.35;;;4.70;;
62071;SDS011;48031;48.542;13.232;2022-12-07T00:11:31;6.55;;;3.65;;
62071;SDS011;48031;48.542;13.232;2022-12-07T00:15:34;5.80;;;3.90;;
62071;SDS011;48031;48.542;13.232;2022-12-07T00:19:37;5.18;;;3.67;;
62071;SDS011;48031;48.542;13.232;2022-12-07T00:23:39;6.80;;;4.60;;
62071;SDS011;48031;48.542;13.232;2022-12-07T00:27:42;6.80;;;4.25;;
62071;SDS011;48031;48.542;13.232;2022-12-07T00:31:44;5.43;;;3.80;;
62071;SDS011;48031;48.542;13.232;2022-12-07T00:35:47;5.80;;;3.65;;
62071;SDS011;48031;48.542;13.232;2022-12-07T00:39:56;5.20;;;3.70;;
62071;SDS011;48031;48.542;13.232;2022-12-07T00:43:58;5.03;;;3.83;;
62071;SDS011;48031;48.542;13.232;2022-12-07T00:48:00;6.10;;;3.50;;
62071;SDS011;48031;48.542;13.232;2022-12-07T00:52:02;7.35;;;4.75;;
62071;SDS011;48031;48.542;13.232;2022-12-07T00:56:17;5.97;;;4.10;;
62071;SDS011;48031;48.542;13.232;2022-12-07T01:00:21;7.55;;;4.28;;
62071;SDS011;48031;48.542;13.232;2022-12-07T01:04:23;6.03;;;3.85;;
62071;SDS011;48031;48.542;13.232;2022-12-07T01:08:25;6.05;;;3.72;;
62071;SDS011;48031;48.542;13.232;2022-12-07T01:12:28;7.13;;;4.00;;
62071;SDS011;48031;48.542;13.232;2022-12-07T01:16:30;3.97;;;2.95;;
62071;SDS011;48031;48.542;13.232;2022-12-07T01:20:33;5.75;;;3.75;;
62071;SDS011;48031;48.542;13.232;2022-12-07T01:24:35;5.28;;;3.60;;
62071;SDS011;48031;48.542;13.232;2022-12-07T01:28:37;5.53;;;3.95;;
62071;SDS011;48031;48.542;13.232;2022-12-07T01:32:39;4.88;;;3.58;;
62071;SDS011;48031;48.542;13.232;2022-12-07T01:36:41;7.18;;;3.80;;
62071;SDS011;48031;48.542;13.232;2022-12-07T01:40:43;6.25;;;4.20;;
62071;SDS011;48031;48.542;13.232;2022-12-07T01:53:38;5.15;;;3.95;;
62071;SDS011;48031;48.542;13.232;2022-12-07T01:57:48;6.40;;;3.80;;
62071;SDS011;48031;48.542;13.232;2022-12-07T02:01:54;4.82;;;3.45;;
62071;SDS011;48031;48.542;13.232;2022-12-07T02:05:57;7.40;;;4.32;;
62071;SDS011;48031;48.542;13.232;2022-12-07T02:10:18;6.63;;;4.47;;
62071;SDS011;48031;48.542;13.232;2022-12-07T02:14:23;5.85;;;3.85;;
62071;SDS011;48031;48.542;13.232;2022-12-07T02:18:30;5.95;;;3.67;;
62071;SDS011;48031;48.542;13.232;2022-12-07T02:31:26;6.15;;;4.63;;
62071;SDS011;48031;48.542;13.232;2022-12-07T02:35:35;5.80;;;3.88;;
62071;SDS011;48031;48.542;13.232;2022-12-07T02:39:52;7.78;;;4.82;;
62071;SDS011;48031;48.542;13.232;2022-12-07T02:44:01;6.90;;;4.50;;
62071;SDS011;48031;48.542;13.232;2022-12-07T02:48:06;5.47;;;3.87;;
62071;SDS011;48031;48.542;13.232;2022-12-07T02:52:10;6.30;;;4.03;;
62071;SDS011;48031;48.542;13.232;2022-12-07T03:00:52;5.82;;;3.90;;
62071;SDS011;48031;48.542;13.232;2022-12-07T03:09:18;6.47;;;4.35;;
62071;SDS011;48031;48.542;13.232;2022-12-07T03:13:42;8.30;;;4.80;;
62071;SDS011;48031;48.542;13.232;2022-12-07T03:18:05;6.38;;;4.32;;
62071;SDS011;48031;48.542;13.232;2022-12-07T03:22:12;6.72;;;4.20;;
62071;SDS011;48031;48.542;13.232;2022-12-07T03:26:15;11.35;;;5.80;;
62071;SDS011;48031;48.542;13.232;2022-12-07T03:30:21;8.57;;;5.25;;
62071;SDS011;48031;48.542;13.232;2022-12-07T03:34:34;8.30;;;5.20;;
62071;SDS011;48031;48.542;13.232;2022-12-07T03:38:44;8.82;;;5.35;;
62071;SDS011;48031;48.542;13.232;2022-12-07T03:43:04;6.68;;;4.50;;
62071;SDS011;48031;48.542;13.232;2022-12-07T03:47:18;9.13;;;5.40;;
62071;SDS011;48031;48.542;13.232;2022-12-07T03:51:43;9.30;;;5.38;;
62071;SDS011;48031;48.542;13.232;2022-12-07T03:55:59;7.00;;;4.07;;
62071;SDS011;48031;48.542;13.232;2022-12-07T04:00:03;10.05;;;4.75;;
62071;SDS011;48031;48.542;13.232;2022-12-07T04:04:15;8.23;;;5.57;;
62071;SDS011;48031;48.542;13.232;2022-12-07T04:08:17;8.82;;;5.60;;
62071;SDS011;48031;48.542;13.232;2022-12-07T04:12:19;8.23;;;4.97;;
62071;SDS011;48031;48.542;13.232;2022-12-07T04:16:20;9.45;;;5.65;;
62071;SDS011;48031;48.542;13.232;2022-12-07T04:20:23;7.30;;;4.68;;
62071;SDS011;48031;48.542;13.232;2022-12-07T04:24:24;7.30;;;5.00;;
62071;SDS011;48031;48.542;13.232;2022-12-07T04:28:26;7.88;;;5.25;;
62071;SDS011;48031;48.542;13.232;2022-12-07T04:32:28;9.13;;;5.57;;
62071;SDS011;48031;48.542;13.232;2022-12-07T04:36:30;10.48;;;6.05;;
62071;SDS011;48031;48.542;13.232;2022-12-07T04:40:32;9.20;;;5.93;;
62071;SDS011;48031;48.542;13.232;2022-12-07T04:44:34;9.20;;;5.68;;
62071;SDS011;48031;48.542;13.232;2022-12-07T04:48:36;9.88;;;5.82;;
62071;SDS011;48031;48.542;13.232;2022-12-07T04:52:38;7.88;;;5.15;;
62071;SDS011;48031;48.542;13.232;2022-12-07T04:56:40;10.43;;;6.10;;
62071;SDS011;48031;48.542;13.232;2022-12-07T05:00:42;8.07;;;5.35;;
62071;SDS011;48031;48.542;13.232;2022-12-07T05:04:44;9.20;;;5.80;;
62071;SDS011;48031;48.542;13.232;2022-12-07T05:08:46;10.07;;;6.13;;
62071;SDS011;48031;48.542;13.232;2022-12-07T05:12:48;8.35;;;5.40;;
62071;SDS011;48031;48.542;13.232;2022-12-07T05:16:50;8.50;;;5.40;;
62071;SDS011;48031;48.542;13.232;2022-12-07T05:20:53;8.75;;;5.20;;
62071;SDS011;48031;48.542;13.232;2022-12-07T05:24:55;9.30;;;5.22;;
62071;SDS011;48031;48.542;13.232;2022-12-07T05:28:57;8.25;;;5.30;;
62071;SDS011;48031;48.542;13.232;2022-12-07T05:32:59;10.05;;;6.05;;
62071;SDS011;48031;48.542;13.232;2022-12-07T05:37:01;9.52;;;5.70;;
62071;SDS011;48031;48.542;13.232;2022-12-07T05:41:03;9.75;;;5.75;;
62071;SDS011;48031;48.542;13.232;2022-12-07T05:45:07;9.70;;;5.18;;
62071;SDS011;48031;48.542;13.232;2022-12-07T05:49:10;9.30;;;5.07;;
62071;SDS011;48031;48.542;13.232;2022-12-07T05:53:12;11.15;;;6.30;;
62071;SDS011;48031;48.542;13.232;2022-12-07T05:57:16;9.13;;;5.75;;
62071;SDS011;48031;48.542;13.232;2022-12-07T06:01:18;11.13;;;6.60;;
62071;SDS011;48031;48.542;13.232;2022-12-07T06:05:20;11.27;;;5.82;;
62071;SDS011;48031;48.542;13.232;2022-12-07T06:09:22;12.27;;;7.20;;
62071;SDS011;48031;48.542;13.232;2022-12-07T06:13:25;10.93;;;6.70;;
62071;SDS011;48031;48.542;13.232;2022-12-07T06:17:26;12.18;;;6.57;;
62071;SDS011;48031;48.542;13.232;2022-12-07T06:21:28;10.73;;;6.07;;
62071;SDS011;48031;48.542;13.232;2022-12-07T06:25:30;13.40;;;6.75;;
62071;SDS011;48031;48.542;13.232;2022-12-07T06:29:32;10.73;;;5.93;;
62071;SDS011;48031;48.542;13.232;2022-12-07T06:33:35;12.23;;;6.85;;
62071;SDS011;48031;48.542;13.232;2022-12-07T06:37:36;10.82;;;6.70;;
62071;SDS011;48031;48.542;13.232;2022-12-07T06:41:38;11.93;;;6.43;;
62071;SDS011;48031;48.542;13.232;2022-12-07T06:45:43;9.20;;;5.53;;
62071;SDS011;48031;48.542;13.232;2022-12-07T06:49:45;13.40;;;7.18;;
62071;SDS011;48031;48.542;13.232;2022-12-07T06:53:47;13.60;;;7.75;;
62071;SDS011;48031;48.542;13.232;2022-12-07T06:57:49;13.55;;;7.70;;
62071;SDS011;48031;48.542;13.232;2022-12-07T07:01:51;13.70;;;7.10;;
62071;SDS011;48031;48.542;13.232;2022-12-07T07:05:52;15.55;;;7.38;;
62071;SDS011;48031;48.542;13.232;2022-12-07T07:09:54;15.18;;;7.50;;
62071;SDS011;48031;48.542;13.232;2022-12-07T07:13:56;15.38;;;8.27;;
62071;SDS011;48031;48.542;13.232;2022-12-07T07:18:00;15.35;;;8.43;;
62071;SDS011;48031;48.542;13.232;2022-12-07T07:22:08;17.48;;;9.52;;
62071;SDS011;48031;48.542;13.232;2022-12-07T07:26:10;15.40;;;8.88;;
62071;SDS011;48031;48.542;13.232;2022-12-07T07:30:11;17.25;;;8.77;;
62071;SDS011;48031;48.542;13.232;2022-12-07T07:34:13;15.40;;;8.65;;
62071;SDS011;48031;48.542;13.232;2022-12-07T07:38:15;14.43;;;7.85;;
62071;SDS011;48031;48.542;13.232;2022-12-07T07:42:17;14.52;;;7.50;;
62071;SDS011;48031;48.542;13.232;2022-12-07T07:46:20;20.83;;;9.30;;
62071;SDS011;48031;48.542;13.232;2022-12-07T07:50:22;15.77;;;7.18;;
62071;SDS011;48031;48.542;13.232;2022-12-07T07:54:24;24.27;;;9.88;;
62071;SDS011;48031;48.542;13.232;2022-12-07T07:58:25;18.80;;;8.82;;
62071;SDS011;48031;48.542;13.232;2022-12-07T08:02:28;13.30;;;6.53;;
62071;SDS011;48031;48.542;13.232;2022-12-07T08:06:31;16.85;;;8.55;;
62071;SDS011;48031;48.542;13.232;2022-12-07T08:10:33;12.80;;;6.95;;
62071;SDS011;48031;48.542;13.232;2022-12-07T08:14:36;9.70;;;5.25;;
62071;SDS011;48031;48.542;13.232;2022-12-07T08:18:39;9.45;;;5.20;;
62071;SDS011;48031;48.542;13.232;2022-12-07T08:22:41;11.45;;;6.50;;
62071;SDS011;48031;48.542;13.232;2022-12-07T08:26:43;14.35;;;7.72;;
62071;SDS011;48031;48.542;13.232;2022-12-07T08:30:45;10.70;;;6.30;;
62071;SDS011;48031;48.542;13.232;2022-12-07T08:34:47;9.05;;;5.15;;
62071;SDS011;48031;48.542;13.232;2022-12-07T08:38:49;10.13;;;5.80;;
62071;SDS011;48031;48.542;13.232;2022-12-07T08:43:11;14.82;;;8.30;;
62071;SDS011;48031;48.542;13.232;2022-12-07T08:47:13;14.00;;;7.78;;
62071;SDS011;48031;48.542;13.232;2022-12-07T08:51:14;14.80;;;7.95;;
62071;SDS011;48031;48.542;13.232;2022-12-07T08:55:17;15.20;;;8.27;;
62071;SDS011;48031;48.542;13.232;2022-12-07T08:59:20;12.93;;;7.30;;
62071;SDS011;48031;48.542;13.232;2022-12-07T09:03:22;14.32;;;7.55;;
62071;SDS011;48031;48.542;13.232;2022-12-07T09:07:24;13.10;;;7.55;;
62071;SDS011;48031;48.542;13.232;2022-12-07T09:11:27;16.33;;;8.68;;
62071;SDS011;48031;48.542;13.232;2022-12-07T09:15:29;17.25;;;9.38;;
62071;SDS011;48031;48.542;13.232;2022-12-07T09:19:32;15.35;;;7.82;;
62071;SDS011;48031;48.542;13.232;2022-12-07T09:23:34;17.92;;;9.27;;
62071;SDS011;48031;48.542;13.232;2022-12-07T09:27:36;12.05;;;7.15;;
62071;SDS011;48031;48.542;13.232;2022-12-07T09:31:38;16.13;;;8.40;;
62071;SDS011;48031;48.542;13.232;2022-12-07T09:35:44;16.33;;;9.05;;
62071;SDS011;48031;48.542;13.232;2022-12-07T09:39:46;16.37;;;8.00;;
62071;SDS011;48031;48.542;13.232;2022-12-07T09:43:51;19.00;;;8.13;;
62071;SDS011;48031;48.542;13.232;2022-12-07T09:47:54;12.80;;;7.43;;
62071;SDS011;48031;48.542;13.232;2022-12-07T09:52:29;13.55;;;7.85;;
62071;SDS011;48031;48.542;13.232;2022-12-07T09:56:32;14.77;;;8.15;;
62071;SDS011;48031;48.542;13.232;2022-12-07T10:00:34;12.70;;;7.10;;
62071;SDS011;48031;48.542;13.232;2022-12-07T10:04:36;12.70;;;7.53;;
62071;SDS011;48031;48.542;13.232;2022-12-07T10:08:39;13.23;;;7.75;;
62071;SDS011;48031;48.542;13.232;2022-12-07T10:12:56;13.38;;;7.40;;
62071;SDS011;48031;48.542;13.232;2022-12-07T10:17:26;9.40;;;6.00;;
62071;SDS011;48031;48.542;13.232;2022-12-07T10:21:32;11.45;;;7.25;;
62071;SDS011;48031;48.542;13.232;2022-12-07T10:25:35;8.40;;;5.47;;
62071;SDS011;48031;48.542;13.232;2022-12-07T10:29:39;11.73;;;7.25;;
62071;SDS011;48031;48.542;13.232;2022-12-07T10:37:52;10.07;;;6.53;;
62071;SDS011;48031;48.542;13.232;2022-12-07T10:46:09;7.03;;;4.10;;
62071;SDS011;48031;48.542;13.232;2022-12-07T10:50:47;8.68;;;5.70;;
62071;SDS011;48031;48.542;13.232;2022-12-07T11:04:33;9.05;;;5.40;;
62071;SDS011;48031;48.542;13.232;2022-12-07T11:37:57;8.70;;;6.00;;
62071;SDS011;48031;48.542;13.232;2022-12-07T11:46:12;8.93;;;5.50;;
62071;SDS011;48031;48.542;13.232;2022-12-07T11:50:27;7.90;;;5.10;;
62071;SDS011;48031;48.542;13.232;2022-12-07T11:54:36;11.20;;;6.82;;
62071;SDS011;48031;48.542;13.232;2022-12-07T12:02:53;11.85;;;6.30;;
62071;SDS011;48031;48.542;13.232;2022-12-07T12:07:02;9.40;;;6.35;;
62071;SDS011;48031;48.542;13.232;2022-12-07T12:20:35;10.93;;;6.95;;
62071;SDS011;48031;48.542;13.232;2022-12-07T12:24:39;12.10;;;7.47;;
62071;SDS011;48031;48.542;13.232;2022-12-07T12:33:46;12.63;;;7.45;;
62071;SDS011;48031;48.542;13.232;2022-12-07T12:45:40;11.20;;;6.28;;
62071;SDS011;48031;48.542;13.232;2022-12-07T12:49:43;10.20;;;6.25;;
62071;SDS011;48031;48.542;13.232;2022-12-07T12:54:05;14.38;;;7.25;;
62071;SDS011;48031;48.542;13.232;2022-12-07T13:06:36;10.10;;;5.93;;
62071;SDS011;48031;48.542;13.232;2022-12-07T13:10:40;9.55;;;6.30;;
62071;SDS011;48031;48.542;13.232;2022-12-07T13:18:57;9.07;;;5.55;;
62071;SDS011;48031;48.542;13.232;2022-12-07T13:22:59;12.50;;;6.57;;
62071;SDS011;48031;48.542;13.232;2022-12-07T13:27:02;15.80;;;7.05;;
62071;SDS011;48031;48.542;13.232;2022-12-07T13:31:11;8.90;;;5.22;;
62071;SDS011;48031;48.542;13.232;2022-12-07T13:35:36;8.25;;;5.60;;
62071;SDS011;48031;48.542;13.232;2022-12-07T13:39:45;11.73;;;6.18;;
62071;SDS011;48031;48.542;13.232;2022-12-07T13:43:50;11.38;;;6.53;;
62071;SDS011;48031;48.542;13.232;2022-12-07T13:47:52;9.88;;;5.32;;
62071;SDS011;48031;48.542;13.232;2022-12-07T13:52:16;8.30;;;5.40;;
62071;SDS011;48031;48.542;13.232;2022-12-07T13:56:27;9.40;;;6.15;;
62071;SDS011;48031;48.542;13.232;2022-12-07T14:00:35;11.20;;;5.97;;
62071;SDS011;48031;48.542;13.232;2022-12-07T14:04:37;10.02;;;5.95;;
62071;SDS011;48031;48.542;13.232;2022-12-07T14:08:39;9.35;;;5.72;;
62071;SDS011;48031;48.542;13.232;2022-12-07T14:12:45;10.52;;;6.05;;
62071;SDS011;48031;48.542;13.232;2022-12-07T14:21:16;10.38;;;6.22;;
62071;SDS011;48031;48.542;13.232;2022-12-07T14:25:22;10.82;;;6.03;;
62071;SDS011;48031;48.542;13.232;2022-12-07T14:33:27;9.85;;;5.88;;
62071;SDS011;48031;48.542;13.232;2022-12-07T14:37:30;8.50;;;5.38;;
62071;SDS011;48031;48.542;13.232;2022-12-07T14:41:32;9.48;;;5.13;;
62071;SDS011;48031;48.542;13.232;2022-12-07T14:45:52;10.23;;;5.70;;
62071;SDS011;48031;48.542;13.232;2022-12-07T14:49:54;9.05;;;5.47;;
62071;SDS011;48031;48.542;13.232;2022-12-07T14:53:57;10.40;;;5.82;;
62071;SDS011;48031;48.542;13.232;2022-12-07T14:57:59;13.13;;;6.75;;
62071;SDS011;48031;48.542;13.232;2022-12-07T15:02:01;13.88;;;7.97;;
62071;SDS011;48031;48.542;13.232;2022-12-07T15:06:04;13.98;;;6.68;;
62071;SDS011;48031;48.542;13.232;2022-12-07T15:10:09;10.35;;;6.07;;
62071;SDS011;48031;48.542;13.232;2022-12-07T15:14:24;12.32;;;6.32;;
62071;SDS011;48031;48.542;13.232;2022-12-07T15:18:25;13.15;;;7.10;;
62071;SDS011;48031;48.542;13.232;2022-12-07T15:22:27;10.02;;;5.53;;
62071;SDS011;48031;48.542;13.232;2022-12-07T15:26:39;11.45;;;6.40;;
62071;SDS011;48031;48.542;13.232;2022-12-07T15:30:42;12.38;;;6.45;;
62071;SDS011;48031;48.542;13.232;2022-12-07T15:34:45;8.80;;;5.60;;
62071;SDS011;48031;48.542;13.232;2022-12-07T15:38:47;10.00;;;5.57;;
62071;SDS011;48031;48.542;13.232;2022-12-07T15:43:09;11.65;;;6.05;;
62071;SDS011;48031;48.542;13.232;2022-12-07T15:47:35;12.20;;;6.63;;
62071;SDS011;48031;48.542;13.232;2022-12-07T15:51:58;11.75;;;6.30;;
62071;SDS011;48031;48.542;13.232;2022-12-07T15:56:00;9.32;;;5.55;;
62071;SDS011;48031;48.542;13.232;2022-12-07T16:00:02;11.43;;;6.40;;
62071;SDS011;48031;48.542;13.232;2022-12-07T16:04:05;11.07;;;6.47;;
62071;SDS011;48031;48.542;13.232;2022-12-07T16:08:06;12.57;;;6.18;;
62071;SDS011;48031;48.542;13.232;2022-12-07T16:12:09;12.30;;;6.13;;
62071;SDS011;48031;48.542;13.232;2022-12-07T16:16:12;10.93;;;6.38;;
62071;SDS011;48031;48.542;13.232;2022-12-07T16:20:16;12.65;;;7.10;;
62071;SDS011;48031;48.542;13.232;2022-12-07T16:24:18;12.95;;;7.10;;
62071;SDS011;48031;48.542;13.232;2022-12-07T16:28:20;14.85;;;7.53;;
62071;SDS011;48031;48.542;13.232;2022-12-07T16:32:21;13.68;;;7.57;;
62071;SDS011;48031;48.542;13.232;2022-12-07T16:36:24;12.15;;;7.18;;
62071;SDS011;48031;48.542;13.232;2022-12-07T16:40:47;12.25;;;6.63;;
62071;SDS011;48031;48.542;13.232;2022-12-07T16:44:50;13.55;;;7.10;;
62071;SDS011;48031;48.542;13.232;2022-12-07T16:48:51;13.98;;;7.72;;
62071;SDS011;48031;48.542;13.232;2022-12-07T16:52:53;10.32;;;5.78;;
62071;SDS011;48031;48.542;13.232;2022-12-07T16:56:55;12.25;;;6.90;;
62071;SDS011;48031;48.542;13.232;2022-12-07T17:00:57;11.98;;;6.18;;
62071;SDS011;48031;48.542;13.232;2022-12-07T17:04:59;11.00;;;6.35;;
62071;SDS011;48031;48.542;13.232;2022-12-07T17:09:01;10.68;;;5.90;;
62071;SDS011;48031;48.542;13.232;2022-12-07T17:13:04;11.95;;;5.15;;
62071;SDS011;48031;48.542;13.232;2022-12-07T17:17:26;11.80;;;5.88;;
62071;SDS011;48031;48.542;13.232;2022-12-07T17:21:29;8.80;;;5.38;;
62071;SDS011;48031;48.542;13.232;2022-12-07T17:25:31;6.90;;;4.53;;
62071;SDS011;48031;48.542;13.232;2022-12-07T17:29:33;10.00;;;4.90;;
62071;SDS011;48031;48.542;13.232;2022-12-07T17:33:35;11.52;;;5.07;;
62071;SDS011;48031;48.542;13.232;2022-12-07T17:37:37;8.27;;;4.80;;
62071;SDS011;48031;48.542;13.232;2022-12-07T17:41:39;8.38;;;4.75;;
62071;SDS011;48031;48.542;13.232;2022-12-07T17:46:04;12.15;;;6.85;;
62071;SDS011;48031;48.542;13.232;2022-12-07T17:50:07;8.40;;;5.00;;
62071;SDS011;48031;48.542;13.232;2022-12-07T17:54:11;9.85;;;5.28;;
62071;SDS011;48031;48.542;13.232;2022-12-07T17:58:13;8.90;;;5.38;;
62071;SDS011;48031;48.542;13.232;2022-12-07T18:02:15;11.02;;;6.28;;
62071;SDS011;48031;48.542;13.232;2022-12-07T18:06:17;9.77;;;5.25;;
62071;SDS011;48031;48.542;13.232;2022-12-07T18:10:19;12.85;;;6.22;;
62071;SDS011;48031;48.542;13.232;2022-12-07T18:14:21;10.75;;;5.47;;
62071;SDS011;48031;48.542;13.232;2022-12-07T18:18:23;9.63;;;5.85;;
62071;SDS011;48031;48.542;13.232;2022-12-07T18:22:24;10.00;;;5.65;;
62071;SDS011;48031;48.542;13.232;2022-12-07T18:26:27;10.48;;;5.70;;
62071;SDS011;48031;48.542;13.232;2022-12-07T18:30:29;10.02;;;5.65;;
62071;SDS011;48031;48.542;13.232;2022-12-07T18:34:51;8.77;;;4.95;;
62071;SDS011;48031;48.542;13.232;2022-12-07T18:38:55;10.63;;;5.75;;
62071;SDS011;48031;48.542;13.232;2022-12-07T18:42:57;9.02;;;4.90;;
62071;SDS011;48031;48.542;13.232;2022-12-07T18:46:58;8.45;;;5.20;;
62071;SDS011;48031;48.542;13.232;2022-12-07T18:51:01;11.80;;;5.40;;
62071;SDS011;48031;48.542;13.232;2022-12-07T18:55:05;9.48;;;4.78;;
62071;SDS011;48031;48.542;13.232;2022-12-07T18:59:10;9.02;;;5.10;;
62071;SDS011;48031;48.542;13.232;2022-12-07T19:03:46;10.05;;;5.60;;
62071;SDS011;48031;48.542;13.232;2022-12-07T19:07:48;7.20;;;4.35;;
62071;SDS011;48031;48.542;13.232;2022-12-07T19:11:52;7.43;;;4.38;;
62071;SDS011;48031;48.542;13.232;2022-12-07T19:15:55;6.82;;;4.18;;
62071;SDS011;48031;48.542;13.232;2022-12-07T19:19:56;6.45;;;3.65;;
62071;SDS011;48031;48.542;13.232;2022-12-07T19:24:01;4.13;;;2.55;;
62071;SDS011;48031;48.542;13.232;2022-12-07T19:28:04;4.57;;;3.35;;
62071;SDS011;48031;48.542;13.232;2022-12-07T19:32:06;8.43;;;4.25;;
62071;SDS011;48031;48.542;13.232;2022-12-07T19:36:11;5.93;;;3.80;;
62071;SDS011;48031;48.542;13.232;2022-12-07T19:40:12;4.78;;;3.05;;
62071;SDS011;48031;48.542;13.232;2022-12-07T19:44:15;5.03;;;3.20;;
62071;SDS011;48031;48.542;13.232;2022-12-07T19:48:19;4.80;;;3.25;;
62071;SDS011;48031;48.542;13.232;2022-12-07T19:52:21;4.00;;;2.63;;
62071;SDS011;48031;48.542;13.232;2022-12-07T19:56:23;3.75;;;2.50;;
62071;SDS011;48031;48.542;13.232;2022-12-07T20:00:25;2.97;;;1.92;;
62071;SDS011;48031;48.542;13.232;2022-12-07T20:04:28;16.67;;;7.40;;
62071;SDS011;48031;48.542;13.232;2022-12-07T20:08:31;8.73;;;5.47;;
62071;SDS011;48031;48.542;13.232;2022-12-07T20:12:32;6.47;;;3.65;;
62071;SDS011;48031;48.542;13.232;2022-12-07T20:16:53;5.22;;;3.17;;
62071;SDS011;48031;48.542;13.232;2022-12-07T20:20:58;3.22;;;2.40;;
62071;SDS011;48031;48.542;13.232;2022-12-07T20:25:00;3.33;;;2.50;;
62071;SDS011;48031;48.542;13.232;2022-12-07T20:29:06;2.85;;;2.35;;
62071;SDS011;48031;48.542;13.232;2022-12-07T20:33:16;2.78;;;2.28;;
62071;SDS011;48031;48.542;13.232;2022-12-07T20:37:19;2.95;;;2.20;;
62071;SDS011;48031;48.542;13.232;2022-12-07T20:41:21;2.25;;;1.70;;
62071;SDS011;48031;48.542;13.232;2022-12-07T20:45:48;3.45;;;2.50;;
62071;SDS011;48031;48.542;13.232;2022-12-07T20:49:50;3.30;;;2.30;;
62071;SDS011;48031;48.542;13.232;2022-12-07T20:53:52;3.00;;;2.30;;
62071;SDS011;48031;48.542;13.232;2022-12-07T20:57:54;2.92;;;2.00;;
62071;SDS011;48031;48.542;13.232;2022-12-07T21:01:56;2.58;;;1.95;;
62071;SDS011;48031;48.542;13.232;2022-12-07T21:06:00;6.47;;;2.53;;
62071;SDS011;48031;48.542;13.232;2022-12-07T21:10:03;2.75;;;2.20;;
62071;SDS011;48031;48.542;13.232;2022-12-07T21:14:07;3.63;;;2.45;;
62071;SDS011;48031;48.542;13.232;2022-12-07T21:18:09;2.63;;;2.08;;
62071;SDS011;48031;48.542;13.232;2022-12-07T21:22:10;2.88;;;2.15;;
62071;SDS011;48031;48.542;13.232;2022-12-07T21:26:14;3.50;;;2.10;;
62071;SDS011;48031;48.542;13.232;2022-12-07T21:30:17;2.60;;;1.95;;
62071;SDS011;48031;48.542;13.232;2022-12-07T21:34:19;3.55;;;2.45;;
62071;SDS011;48031;48.542;13.232;2022-12-07T21:38:21;3.83;;;2.35;;
62071;SDS011;48031;48.542;13.232;2022-12-07T21:42:23;3.67;;;2.22;;
62071;SDS011;48031;48.542;13.232;2022-12-07T21:46:25;5.50;;;2.80;;
62071;SDS011;48031;48.542;13.232;2022-12-07T21:50:34;4.95;;;2.92;;
62071;SDS011;48031;48.542;13.232;2022-12-07T21:54:42;4.88;;;2.90;;
62071;SDS011;48031;48.542;13.232;2022-12-07T21:58:45;4.75;;;3.38;;
62071;SDS011;48031;48.542;13.232;2022-12-07T22:02:48;4.95;;;3.10;;
62071;SDS011;48031;48.542;13.232;2022-12-07T22:06:50;4.75;;;3.35;;
62071;SDS011;48031;48.542;13.232;2022-12-07T22:10:53;3.85;;;2.97;;
62071;SDS011;48031;48.542;13.232;2022-12-07T22:14:55;4.30;;;3.10;;
62071;SDS011;48031;48.542;13.232;2022-12-07T22:19:10;5.30;;;3.47;;
62071;SDS011;48031;48.542;13.232;2022-12-07T22:23:12;7.00;;;3.70;;
62071;SDS011;48031;48.542;13.232;2022-12-07T22:27:14;4.63;;;3.42;;
62071;SDS011;48031;48.542;13.232;2022-12-07T22:31:16;6.72;;;3.78;;
62071;SDS011;48031;48.542;13.232;2022-12-07T22:35:19;6.00;;;3.65;;
62071;SDS011;48031;48.542;13.232;2022-12-07T22:39:21;6.85;;;3.40;;
62071;SDS011;48031;48.542;13.232;2022-12-07T22:43:23;6.45;;;4.20;;
62071;SDS011;48031;48.542;13.232;2022-12-07T22:47:26;9.15;;;4.88;;
62071;SDS011;48031;48.542;13.232;2022-12-07T22:51:28;11.52;;;4.22;;
62071;SDS011;48031;48.542;13.232;2022-12-07T22:55:37;4.75;;;3.38;;
62071;SDS011;48031;48.542;13.232;2022-12-07T22:59:40;5.68;;;2.80;;
62071;SDS011;48031;48.542;13.232;2022-12-07T23:03:42;6.47;;;4.07;;
62071;SDS011;48031;48.542;13.232;2022-12-07T23:07:44;6.45;;;4.10;;
62071;SDS011;48031;48.542;13.232;2022-12-07T23:11:46;7.78;;;4.57;;
62071;SDS011;48031;48.542;13.232;2022-12-07T23:16:13;8.52;;;5.30;;
62071;SDS011;48031;48.542;13.232;2022-12-07T23:20:15;9.45;;;5.82;;
62071;SDS011;48031;48.542;13.232;2022-12-07T23:24:17;10.27;;;5.20;;
62071;SDS011;48031;48.542;13.232;2022-12-07T23:28:19;8.02;;;4.75;;
62071;SDS011;48031;48.542;13.232;2022-12-07T23:32:21;8.00;;;4.63;;
62071;SDS011;48031;48.542;13.232;2022-12-07T23:36:24;8.40;;;5.00;;
62071;SDS011;48031;48.542;13.232;2022-12-07T23:40:27;5.22;;;3.47;;
62071;SDS011;48031;48.542;13.232;2022-12-07T23:44:29;5.65;;;3.70;;
62071;SDS011;48031;48.542;13.232;2022-12-07T23:48:30;8.10;;;4.35;;
62071;SDS011;48031;48.542;13.232;2022-12-07T23:52:32;9.38;;;4.97;;
62071;SDS011;48031;48.542;13.232;2022-12-07T23:56:34;9.68;;;4.15;;
